Prescott Valley, AZ

3:45 PM MST on August 30, 2016 (GMT -0700)
Naklas | | Change Station

Elev 4976 ft 34.62 °N, 112.31 °W | Updated 1 minute ago

Scattered Clouds
Scattered Clouds
95.0 °F
Feels Like 90 °F
N
1.6
Wind Variable Wind from NE
Gusts 3.1 mph

Today
High -- | Low -- °F
--% Chance of Precip.
Yesterday
High -- | Low -- °F
Precip. -- in
Pressure 29.90 in
Visibility 10.0 miles
Clouds Scattered Clouds 8000 ft
Heat Index 90 °F
Dew Point 30 °F
Humidity 10%
Rainfall 0.00 in
Snow Depth Not available.
6:01 AM 6:57 PM
Waning Crescent, 2% visible
METAR KPRC 302153Z 03006KT 10SM SCT080 31/08 A3014 RMK AO2 SLP125 T03060078
Pressure 29.90 in
Visibility 10.0 miles
Clouds Scattered Clouds 8000 ft
Heat Index 90 °F
Dew Point 30 °F
Humidity 10%
Rainfall 0.00 in
Snow Depth Not available.
6:01 AM 6:57 PM
Waning Crescent, 2% visible
METAR KPRC 302153Z 03006KT 10SM SCT080 31/08 A3014 RMK AO2 SLP125 T03060078

10-Day Weather Forecast

Almanac

Astronomy

Aug. 30, 2016 Rise Set
Actual Time
Civil Twilight
Nautical Twilight
Astronomical Twilight
Moon
Length of Visible Light
Length of Day
Tomorrow will be .
, % of the Moon is Illuminated

Today's Extremes

State Highs State Lows

Community

WunderPhotos

Upload Photos

1,935,917 photos uploaded!

WunderBlog® & News

Nearby

Air Quality

  Air Quality AQ Index Pollutant
Not available.

Snow Depth

Station Depth Elevation

Earthquake Activity

City Distance Mag. Time & Date
Minimum magnitude displayed is 2.5.

Coastal Water Temperatures

Place Temperature

Stations

Nearby Weather Stations

Station Location Temp. Windchill Dew Point Humidity Wind Precip. Elev Updated Type
                   

Watches & Warnings

There are currently no watches in effect.